KRKS/RKS METAR and TAF weather

Enter ICAO airport designator
Station Type Date Time Source
KRKS METAR 2020/07/15 03:54 UTC NOAA

KRKS 150354Z AUTO 29014G23KT 10SM CLR 20/M03 A3017 RMK AO2 SLP125 T02001033


Station Type Date Time Source
KRKS Decoded METAR 2020/07/15 03:54 UTC NOAA

ROCK SPRINGS-SWEETWATER CO, WY, United States (KRKS) 41-36N 109-03W
Jul 14, 2020 - 11:54 PM EDT / 2020.07.15 0354 UTC
Wind: from the WNW (290 degrees) at 16 MPH (14 KT) gusting to 26 MPH (23 KT):0
Visibility: 10 mile(s):0
Sky conditions: clear
Temperature: 68.0 F (20.0 C)
Dew Point: 26.1 F (-3.3 C)
Relative Humidity: 20%
Pressure (altimeter): 30.17 in. Hg (1021 hPa)
ob: KRKS 150354Z AUTO 29014G23KT 10SM CLR 20/M03 A3017 RMK AO2 SLP125 T02001033
cycle: 4

Station Type Date Time Source
KRKS TAF 2020/07/14 20:12 UTC NOAA

TAF
AMD KRKS 142010Z 1420/1518 28024G36KT P6SM SCT120
FM150300 31011KT P6SM FEW120
FM150800 VRB05KT P6SM SKC

Example: see airport list